Time;durP1;ratioP1;P1;durP2;ratioP2;P2;SDS_P1;SDS_P2;PMS_P1;PMS_P2;Temp;Humidity;BMP_temperature;BMP_pressure;BME280_temperature;BME280_humidity;BME280_pressure;Samples;Min_cycle;Max_cycle;Signal;HPM_P1;HPM_P2
2022/05/14 00:02:15;;;;;;;71.27;66.40;;;;;;;12.46;100.00;102125.21;1991788;71;33387;-76
2022/05/14 00:08:01;;;;;;;72.27;66.87;;;;;;;11.95;100.00;102134.22;2002572;71;33348;-76
2022/05/14 00:13:47;;;;;;;73.03;68.03;;;;;;;11.82;100.00;102084.82;2011485;70;33381;-75
2022/05/14 00:19:34;;;;;;;73.57;68.27;;;;;;;11.63;100.00;102128.57;2004391;71;32884;-78
2022/05/14 00:25:21;;;;;;;74.57;69.23;;;;;;;11.65;100.00;102121.63;1962295;72;32986;-79
2022/05/14 00:31:05;;;;;;;73.07;67.80;;;;;;;11.76;100.00;102124.86;2013613;71;32892;-76
2022/05/14 00:36:49;;;;;;;73.23;68.30;;;;;;;11.98;100.00;102118.39;1991598;71;32796;-77
2022/05/14 00:42:33;;;;;;;74.70;69.20;;;;;;;11.40;100.00;102128.30;1998964;71;32922;-78
2022/05/14 00:48:19;;;;;;;72.87;67.27;;;;;;;11.34;100.00;102141.84;2011716;71;33505;-76
2022/05/14 00:54:08;;;;;;;73.57;67.47;;;;;;;11.40;100.00;102144.98;2002717;71;32839;-79
2022/05/14 00:59:58;;;;;;;74.43;69.00;;;;;;;11.38;100.00;102146.62;2004663;71;32811;-76
2022/05/14 01:05:43;;;;;;;72.33;66.53;;;;;;;11.27;100.00;102153.17;2012095;71;33246;-76
2022/05/14 01:11:29;;;;;;;73.73;67.67;;;;;;;11.35;100.00;102154.11;2007845;71;32971;-76
2022/05/14 01:17:14;;;;;;;77.50;71.40;;;;;;;11.23;100.00;102146.99;2013219;71;32847;-73
2022/05/14 01:23:03;;;;;;;71.60;66.10;;;;;;;11.01;100.00;102149.75;1998385;71;32908;-79
2022/05/14 01:31:41;;;;;;;70.10;64.37;;;;;;;10.77;100.00;102145.52;1997365;71;33269;-80
2022/05/14 01:37:28;;;;;;;71.60;66.30;;;;;;;10.65;100.00;102148.40;2008075;71;33324;-74
2022/05/14 01:43:13;;;;;;;70.77;65.37;;;;;;;10.66;100.00;102154.77;2017293;71;32940;-73
2022/05/14 01:48:57;;;;;;;66.13;60.80;;;;;;;10.77;100.00;102156.08;2016999;71;32833;-76
2022/05/14 01:54:41;;;;;;;70.20;64.73;;;;;;;10.70;100.00;102157.33;2011854;71;32767;-77
2022/05/14 02:00:25;;;;;;;70.93;65.60;;;;;;;10.74;100.00;102156.57;1998825;71;32950;-77
2022/05/14 02:06:10;;;;;;;68.50;63.27;;;;;;;10.84;100.00;102154.50;1995598;71;33255;-75
2022/05/14 02:11:48;;;;;;;68.60;63.17;;;;;;;10.46;100.00;102157.53;2003992;71;32450;-77
2022/05/14 02:17:33;;;;;;;71.70;66.27;;;;;;;10.99;100.00;102154.73;2018623;71;32889;-79
2022/05/14 02:23:18;;;;;;;69.73;64.33;;;;;;;10.70;100.00;102158.72;1995244;70;32737;-75
2022/05/14 02:29:03;;;;;;;70.47;65.10;;;;;;;10.32;100.00;102145.61;2004202;71;32928;-75
2022/05/14 02:34:48;;;;;;;67.80;62.80;;;;;;;9.91;100.00;102154.58;2015337;71;33004;-78
2022/05/14 02:40:34;;;;;;;69.27;64.07;;;;;;;9.91;100.00;102145.41;2002729;70;32796;-75
2022/05/14 02:46:21;;;;;;;71.43;66.30;;;;;;;10.17;100.00;102154.53;2011605;71;32784;-75
2022/05/14 02:52:07;;;;;;;68.23;63.03;;;;;;;10.20;100.00;102133.73;2014802;71;32811;-77
2022/05/14 02:57:52;;;;;;;69.37;64.00;;;;;;;9.99;100.00;102140.30;1997240;71;32805;-77
2022/05/14 03:03:37;;;;;;;65.17;60.17;;;;;;;9.92;100.00;102148.48;2008263;70;32764;-78
2022/05/14 03:09:22;;;;;;;67.00;61.93;;;;;;;9.51;100.00;102147.69;2016874;71;32810;-77
2022/05/14 03:15:11;;;;;;;65.77;60.57;;;;;;;9.91;100.00;102146.80;2016805;71;32879;-75
2022/05/14 03:20:55;;;;;;;70.10;64.53;;;;;;;9.90;100.00;102161.22;2016952;71;33284;-74
2022/05/14 03:26:39;;;;;;;66.97;61.57;;;;;;;9.94;100.00;102167.11;2009379;71;32883;-78
2022/05/14 03:32:25;;;;;;;70.00;63.93;;;;;;;10.15;100.00;102162.25;1991476;71;32840;-77
2022/05/14 03:38:09;;;;;;;65.50;60.30;;;;;;;9.94;100.00;102152.69;2013331;71;32806;-77
2022/05/14 03:43:53;;;;;;;68.10;62.27;;;;;;;9.86;100.00;102158.64;2018290;71;32838;-78
2022/05/14 03:49:40;;;;;;;67.90;62.43;;;;;;;10.05;100.00;102154.55;2000197;71;33013;-77
2022/05/14 03:55:24;;;;;;;67.03;61.50;;;;;;;9.97;100.00;102154.95;2011418;71;32838;-75
2022/05/14 04:01:08;;;;;;;68.33;62.73;;;;;;;9.97;100.00;102157.73;1960874;71;39771;-76
2022/05/14 04:06:53;;;;;;;68.70;62.90;;;;;;;9.96;100.00;102142.19;2004619;71;32812;-78
2022/05/14 04:12:38;;;;;;;66.37;60.67;;;;;;;9.91;100.00;102150.42;2005929;71;32879;-75
2022/05/14 04:18:26;;;;;;;67.73;61.73;;;;;;;9.94;100.00;102141.59;2015060;71;32964;-74
2022/05/14 04:24:11;;;;;;;67.80;62.60;;;;;;;9.91;100.00;102140.70;1998676;71;32877;-77
2022/05/14 04:29:56;;;;;;;70.43;64.77;;;;;;;9.78;100.00;102145.17;1995345;71;32763;-76
2022/05/14 04:35:40;;;;;;;69.70;63.60;;;;;;;9.95;100.00;102144.66;2009729;71;32902;-76
2022/05/14 04:41:25;;;;;;;67.53;61.73;;;;;;;10.08;100.00;102157.39;2015111;71;33350;-80
2022/05/14 04:47:10;;;;;;;67.37;62.17;;;;;;;10.26;100.00;102153.58;2018708;71;33458;-78
2022/05/14 04:52:55;;;;;;;71.93;66.33;;;;;;;10.31;100.00;102149.50;2002655;71;32824;-75
2022/05/14 04:58:39;;;;;;;72.93;67.03;;;;;;;10.39;100.00;102151.31;1991715;71;33245;-75
2022/05/14 05:04:24;;;;;;;75.13;69.27;;;;;;;10.42;100.00;102166.63;1997288;71;33255;-79
2022/05/14 05:10:10;;;;;;;71.13;65.00;;;;;;;10.42;100.00;102173.02;2000526;71;33340;-73
2022/05/14 05:15:56;;;;;;;75.00;68.70;;;;;;;10.46;100.00;102175.59;2006353;71;32836;-78
2022/05/14 05:21:41;;;;;;;70.50;64.80;;;;;;;10.46;100.00;102178.37;2018599;70;32823;-76
2022/05/14 05:27:25;;;;;;;71.70;65.37;;;;;;;10.47;100.00;102181.98;2011366;71;33339;-77
2022/05/14 05:33:13;;;;;;;69.83;63.97;;;;;;;10.65;100.00;102192.02;1991178;71;32903;-75
2022/05/14 05:38:58;;;;;;;73.17;67.13;;;;;;;10.79;100.00;102195.56;2009753;71;32842;-74
2022/05/14 05:44:43;;;;;;;72.37;66.03;;;;;;;10.96;100.00;102196.93;1998726;71;32847;-78
2022/05/14 05:50:28;;;;;;;74.70;68.33;;;;;;;11.05;100.00;102195.95;2000822;71;33270;-77
2022/05/14 06:02:14;;;;;;;74.90;68.53;;;;;;;11.18;100.00;102203.39;2016836;71;32833;-77
2022/05/14 06:07:58;;;;;;;74.63;68.83;;;;;;;11.33;100.00;102199.98;2017030;71;32837;-77
2022/05/14 06:13:43;;;;;;;76.07;70.03;;;;;;;11.55;100.00;102199.42;2000257;71;32904;-77
2022/05/14 06:19:27;;;;;;;75.47;69.43;;;;;;;11.72;100.00;102195.23;2006538;71;32870;-78
2022/05/14 06:25:13;;;;;;;77.27;71.07;;;;;;;11.98;100.00;102200.55;2009562;71;32905;-75
2022/05/14 06:31:00;;;;;;;74.67;68.70;;;;;;;12.17;100.00;102196.28;2009965;71;32903;-80
2022/05/14 06:36:46;;;;;;;78.20;72.43;;;;;;;12.33;100.00;102185.02;1998935;71;32856;-80
2022/05/14 06:42:32;;;;;;;77.33;71.83;;;;;;;12.37;100.00;102195.08;2000736;71;33359;-81
2022/05/14 06:48:17;;;;;;;80.30;74.40;;;;;;;12.46;100.00;102199.61;2015343;71;32834;-72
2022/05/14 06:54:06;;;;;;;79.70;73.77;;;;;;;12.56;100.00;102196.37;1995290;70;33319;-74
2022/05/14 06:59:53;;;;;;;80.53;74.27;;;;;;;12.60;100.00;102193.89;2015055;71;32819;-77
2022/05/14 07:11:41;;;;;;;79.83;73.87;;;;;;;12.63;100.00;102212.31;2015072;71;32891;-75
2022/05/14 07:17:27;;;;;;;82.10;76.17;;;;;;;12.81;100.00;102206.05;2015176;71;33397;-73
2022/05/14 07:23:11;;;;;;;84.50;78.13;;;;;;;12.91;100.00;102214.50;2009430;71;32827;-75
2022/05/14 07:28:55;;;;;;;80.20;74.27;;;;;;;13.04;100.00;102222.41;2013338;71;32906;-72
2022/05/14 07:34:40;;;;;;;82.53;76.13;;;;;;;13.11;100.00;102213.27;2011781;71;32873;-72
2022/05/14 07:40:29;;;;;;;77.40;71.40;;;;;;;13.47;100.00;102205.41;1991708;71;32873;-69
2022/05/14 07:46:19;;;;;;;74.00;68.53;;;;;;;13.81;100.00;102200.23;2005915;71;32850;-72
2022/05/14 07:52:04;;;;;;;70.93;65.47;;;;;;;14.15;100.00;102211.78;1998761;71;32852;-72
2022/05/14 07:57:47;;;;;;;73.23;67.87;;;;;;;14.82;100.00;102196.75;2000384;71;33395;-72
2022/05/14 08:03:33;;;;;;;77.13;71.50;;;;;;;14.88;100.00;102201.24;2011319;70;33419;-71
2022/05/14 08:09:16;;;;;;;71.60;66.50;;;;;;;14.89;100.00;102200.13;2008275;71;33336;-71
2022/05/14 08:15:04;;;;;;;71.60;66.53;;;;;;;15.68;100.00;102200.21;1999101;71;32848;-70
2022/05/14 08:20:40;;;;;;;73.40;68.03;;;;;;;15.93;100.00;102200.65;2006833;70;32686;-70
2022/05/14 08:26:29;;;;;;;69.57;64.73;;;;;;;15.73;100.00;102202.16;2001020;71;33374;-72
2022/05/14 08:32:13;;;;;;;64.10;60.27;;;;;;;16.15;100.00;102196.03;2003970;71;32883;-70
2022/05/14 08:37:58;;;;;;;67.40;62.50;;;;;;;15.98;100.00;102188.57;2002327;71;32809;-70
2022/05/14 08:43:47;;;;;;;66.03;61.57;;;;;;;16.49;100.00;102187.66;2011788;71;33312;-69
2022/05/14 08:49:36;;;;;;;69.87;65.27;;;;;;;16.68;100.00;102183.06;2004240;70;32915;-71
2022/05/14 08:55:25;;;;;;;58.57;55.03;;;;;;;17.56;100.00;102176.49;2016745;71;32897;-70
2022/05/14 09:01:14;;;;;;;63.67;59.27;;;;;;;17.73;100.00;102173.22;2006261;71;32844;-69
2022/05/14 09:06:59;;;;;;;57.80;54.17;;;;;;;18.08;100.00;102164.86;2011479;71;31418;-70
2022/05/14 09:12:51;;;;;;;54.23;50.97;;;;;;;18.20;100.00;102162.41;2007781;71;31477;-73
2022/05/14 09:18:45;;;;;;;51.47;48.13;;;;;;;18.32;100.00;102163.35;2008118;71;31039;-69
2022/05/14 09:24:37;;;;;;;50.57;47.60;;;;;;;18.13;100.00;102152.97;2005810;71;30978;-72
2022/05/14 09:30:30;;;;;;;46.83;44.23;;;;;;;18.41;100.00;102149.70;2010201;71;33350;-72
2022/05/14 09:36:19;;;;;;;48.77;45.90;;;;;;;18.19;100.00;102151.73;2016925;70;30935;-72
2022/05/14 09:42:04;;;;;;;50.03;46.47;;;;;;;18.42;100.00;102147.72;2001071;71;30848;-75
2022/05/14 09:48:00;;;;;;;41.80;39.10;;;;;;;18.42;100.00;102148.56;2015256;71;30894;-71
2022/05/14 09:53:47;;;;;;;40.33;37.20;;;;;;;18.02;100.00;102144.97;2015110;71;31041;-76
2022/05/14 10:00:11;;;;;;;34.23;32.03;;;;;;;18.62;100.00;102148.81;1997060;71;30815;-77
2022/05/14 10:06:21;;;;;;;43.93;40.63;;;;;;;18.41;100.00;102139.01;2009651;70;31083;-76
2022/05/14 10:12:33;;;;;;;36.60;33.80;;;;;;;18.62;100.00;102141.77;2006301;71;30884;-73
2022/05/14 10:15:10;;;;;;;34.50;32.30;;;;;;;18.35;100.00;102142.50;1977037;72;26647;-76
2022/05/14 10:17:50;;;;;;;33.57;31.47;;;;;;;18.71;100.00;102149.78;1962966;72;24224;-73
2022/05/14 10:30:28;;;;;;;44.53;41.43;;;;;;;18.45;100.00;102135.84;2013149;71;30889;-77
2022/05/14 10:36:18;;;;;;;36.17;33.87;;;;;;;18.49;100.00;102141.13;2006442;71;30801;-76
2022/05/14 10:42:07;;;;;;;27.13;25.27;;;;;;;18.71;100.00;102129.23;2018944;71;31347;-76
2022/05/14 10:44:41;;;;;;;26.97;24.77;;;;;;;18.77;100.00;102131.66;1982426;72;24153;-77
2022/05/14 10:50:29;;;;;;;28.67;26.40;;;;;;;19.14;100.00;102122.78;2015351;71;30994;-76
2022/05/14 10:56:17;;;;;;;23.57;21.77;;;;;;;18.81;100.00;102127.08;1991217;71;30845;-76
2022/05/14 11:02:18;;;;;;;22.30;20.57;;;;;;;19.43;100.00;102119.95;2013183;71;30965;-74
2022/05/14 11:08:12;;;;;;;21.93;20.00;;;;;;;19.08;100.00;102117.24;2008186;71;30839;-76
2022/05/14 11:14:04;;;;;;;23.47;21.67;;;;;;;19.14;100.00;102112.35;1991701;71;30913;-77
2022/05/14 11:20:09;;;;;;;20.30;18.53;;;;;;;19.47;100.00;102114.50;2015006;71;30900;-73
2022/05/14 11:26:10;;;;;;;20.67;19.27;;;;;;;19.38;100.00;102108.74;2000859;71;30949;-74
2022/05/14 11:32:00;;;;;;;22.17;20.30;;;;;;;19.34;100.00;102102.06;2010239;71;30904;-75
2022/05/14 11:37:46;;;;;;;20.53;18.93;;;;;;;19.57;100.00;102099.37;2007892;71;31010;-77
2022/05/14 11:43:43;;;;;;;27.17;24.97;;;;;;;19.74;100.00;102093.33;1999037;71;30886;-77
2022/05/14 11:49:33;;;;;;;18.33;16.70;;;;;;;19.75;100.00;102098.40;1995321;71;30833;-78
2022/05/14 11:52:10;;;;;;;16.70;15.20;;;;;;;19.66;100.00;102097.47;1958753;72;24211;-77
2022/05/14 11:54:43;;;;;;;16.70;15.23;;;;;;;19.52;100.00;102089.88;1959126;72;24676;-78
2022/05/14 12:00:32;;;;;;;18.10;16.77;;;;;;;19.69;100.00;102068.64;2011255;71;30985;-78
2022/05/14 12:06:34;;;;;;;16.00;14.47;;;;;;;19.83;100.00;102071.69;2014887;71;30908;-77
2022/05/14 12:12:26;;;;;;;16.03;14.90;;;;;;;19.88;100.00;102070.17;2008016;71;30927;-74
2022/05/14 12:18:12;;;;;;;17.17;15.73;;;;;;;19.68;100.00;102067.80;1998832;71;31381;-76
2022/05/14 12:23:57;;;;;;;15.83;14.40;;;;;;;19.89;100.00;102060.56;1998795;71;30970;-75
2022/05/14 12:29:53;;;;;;;15.77;14.47;;;;;;;19.98;100.00;102060.03;2005964;71;31380;-76
2022/05/14 12:35:38;;;;;;;14.10;13.00;;;;;;;20.10;100.00;102057.23;2004633;71;30838;-73
2022/05/14 12:41:31;;;;;;;14.03;12.60;;;;;;;20.24;100.00;102057.98;2002543;71;30941;-77
2022/05/14 12:47:28;;;;;;;14.13;12.93;;;;;;;20.07;100.00;102051.64;2011302;71;31397;-74
2022/05/14 12:53:13;;;;;;;13.07;12.07;;;;;;;20.15;100.00;102035.95;2002772;71;33267;-76
2022/05/14 12:58:59;;;;;;;13.37;12.30;;;;;;;20.29;100.00;102029.63;2017012;71;31449;-76
2022/05/14 13:04:50;;;;;;;13.57;12.43;;;;;;;20.60;100.00;102024.05;2017048;71;33311;-75
2022/05/14 13:10:35;;;;;;;13.27;12.07;;;;;;;20.36;100.00;102027.24;2013244;71;30944;-72
2022/05/14 13:16:25;;;;;;;13.30;12.30;;;;;;;20.52;100.00;102012.97;2015173;71;30884;-79
2022/05/14 13:22:14;;;;;;;13.97;12.73;;;;;;;20.43;100.00;102003.61;2016995;71;30896;-72
2022/05/14 13:28:16;;;;;;;13.63;12.50;;;;;;;20.68;100.00;102002.06;2004527;71;30932;-78
2022/05/14 13:37:07;;;;;;;13.10;12.20;;;;;;;20.51;100.00;101994.36;2006420;71;30895;-76
2022/05/14 13:39:53;;;;;;;14.07;12.77;;;;;;;20.64;100.00;101996.25;2009350;71;30994;-76
2022/05/14 13:45:43;;;;;;;13.07;12.20;;;;;;;20.64;100.00;101988.34;2012004;70;30827;-75
2022/05/14 13:51:39;;;;;;;14.70;13.13;;;;;;;20.82;100.00;101986.69;2004192;71;30895;-75
2022/05/14 13:57:30;;;;;;;13.77;12.67;;;;;;;20.75;100.00;101986.31;1995029;71;30952;-73
2022/05/14 14:03:29;;;;;;;13.80;12.53;;;;;;;20.86;100.00;101982.63;2011301;71;30909;-73
2022/05/14 14:09:13;;;;;;;13.60;12.30;;;;;;;20.83;100.00;101970.58;2015297;71;30893;-78
2022/05/14 14:14:58;;;;;;;13.40;12.13;;;;;;;20.78;100.00;101970.72;2010077;71;31372;-77
2022/05/14 14:20:45;;;;;;;13.37;12.27;;;;;;;20.85;100.00;101969.66;2004595;70;30873;-77
2022/05/14 14:26:32;;;;;;;13.53;12.53;;;;;;;21.04;100.00;101951.02;2016826;71;30944;-76
2022/05/14 14:32:16;;;;;;;18.10;16.67;;;;;;;21.12;100.00;101948.25;2006382;71;30892;-73
2022/05/14 14:38:06;;;;;;;13.77;12.50;;;;;;;21.06;100.00;101946.70;2004029;71;30950;-76
2022/05/14 14:43:52;;;;;;;14.07;13.07;;;;;;;21.22;100.00;101938.63;2010013;71;30877;-76
2022/05/14 14:49:37;;;;;;;13.80;12.53;;;;;;;21.09;100.00;101934.75;2010992;71;30925;-76
2022/05/14 14:55:23;;;;;;;13.30;12.27;;;;;;;21.03;100.00;101933.23;2004568;71;30878;-76
2022/05/14 15:01:11;;;;;;;12.77;11.77;;;;;;;21.03;100.00;101934.65;2011302;71;31030;-78
2022/05/14 15:06:57;;;;;;;12.63;11.73;;;;;;;21.02;100.00;101936.38;2013290;71;31018;-75
2022/05/14 15:12:43;;;;;;;12.93;11.93;;;;;;;21.10;100.00;101919.44;2016815;71;30896;-73
2022/05/14 15:18:28;;;;;;;13.50;12.30;;;;;;;21.20;100.00;101905.61;2015190;71;31011;-73
2022/05/14 15:24:12;;;;;;;12.40;11.60;;;;;;;21.42;100.00;101896.98;2016905;71;30898;-75
2022/05/14 15:29:56;;;;;;;12.77;11.77;;;;;;;21.20;100.00;101900.80;1999188;71;30879;-75
2022/05/14 15:35:42;;;;;;;13.17;12.03;;;;;;;21.33;100.00;101898.39;2013626;71;31421;-72
2022/05/14 15:41:27;;;;;;;12.70;11.80;;;;;;;21.37;100.00;101886.41;2009545;71;31009;-75
2022/05/14 15:47:15;;;;;;;13.03;12.07;;;;;;;21.27;100.00;101883.33;2003943;71;30942;-78
2022/05/14 15:53:06;;;;;;;12.20;11.40;;;;;;;21.22;100.00;101876.45;1996936;71;30982;-74
2022/05/14 15:58:50;;;;;;;12.53;11.67;;;;;;;21.24;100.00;101875.52;2017041;71;31003;-74
2022/05/14 16:04:35;;;;;;;12.77;11.77;;;;;;;21.43;100.00;101872.37;1995023;71;31061;-79
2022/05/14 16:16:25;;;;;;;12.57;11.47;;;;;;;21.40;100.00;101868.77;2009969;71;31402;-75
2022/05/14 16:22:09;;;;;;;12.33;11.40;;;;;;;21.29;100.00;101871.95;2007875;71;31409;-76
2022/05/14 16:27:54;;;;;;;12.50;11.40;;;;;;;21.42;100.00;101869.28;2011455;71;30894;-77
2022/05/14 16:33:38;;;;;;;12.50;11.60;;;;;;;21.24;100.00;101874.11;2003992;71;31018;-73
2022/05/14 16:39:23;;;;;;;11.80;10.93;;;;;;;21.43;100.00;101870.37;2005996;71;31005;-76
2022/05/14 16:45:10;;;;;;;12.30;11.50;;;;;;;21.38;100.00;101859.23;2016828;71;31430;-76
2022/05/14 16:50:56;;;;;;;11.77;10.93;;;;;;;21.57;100.00;101872.41;2011947;70;30927;-77
2022/05/14 16:56:41;;;;;;;12.80;11.73;;;;;;;21.41;100.00;101860.55;2011563;70;30952;-76
2022/05/14 17:02:26;;;;;;;12.60;11.50;;;;;;;21.18;100.00;101864.95;2015291;71;31568;-76
2022/05/14 17:08:11;;;;;;;13.03;11.97;;;;;;;21.19;100.00;101864.37;2002454;71;30875;-70
2022/05/14 17:13:57;;;;;;;12.50;11.63;;;;;;;21.21;100.00;101861.48;2009422;71;31547;-75
2022/05/14 17:19:44;;;;;;;13.30;12.30;;;;;;;21.18;100.00;101866.98;2002467;71;30843;-74
2022/05/14 17:25:30;;;;;;;13.07;12.20;;;;;;;21.11;100.00;101864.60;2005742;71;30901;-74
2022/05/14 17:31:17;;;;;;;12.17;11.17;;;;;;;21.13;100.00;101860.91;2011002;71;30968;-74
2022/05/14 17:43:07;;;;;;;12.23;11.30;;;;;;;20.92;100.00;101835.86;2009156;71;30890;-74
2022/05/14 17:48:51;;;;;;;12.80;11.63;;;;;;;20.88;100.00;101843.30;2009096;71;30882;-74
2022/05/14 17:54:36;;;;;;;12.73;11.43;;;;;;;20.72;100.00;101840.13;2016451;71;30946;-71
2022/05/14 18:00:24;;;;;;;13.70;12.50;;;;;;;20.65;100.00;101841.21;1998495;71;30972;-70
2022/05/14 18:06:09;;;;;;;12.27;11.37;;;;;;;20.65;100.00;101844.61;2000447;71;31429;-74
2022/05/14 18:11:53;;;;;;;12.43;11.53;;;;;;;20.43;100.00;101846.97;2000796;71;30888;-74
2022/05/14 18:17:39;;;;;;;12.53;11.53;;;;;;;20.33;100.00;101843.86;2014864;71;30951;-70
2022/05/14 18:23:27;;;;;;;12.83;11.67;;;;;;;20.18;100.00;101841.46;2016731;71;31029;-70
2022/05/14 18:29:15;;;;;;;13.77;12.60;;;;;;;20.07;100.00;101841.48;1995222;71;31070;-70
2022/05/14 18:35:04;;;;;;;13.57;12.30;;;;;;;20.07;100.00;101837.24;1994714;71;30891;-74
2022/05/14 18:40:48;;;;;;;12.87;11.93;;;;;;;19.92;100.00;101840.51;2006022;71;31144;-73
2022/05/14 18:46:34;;;;;;;12.83;11.90;;;;;;;19.92;100.00;101839.94;2000633;71;30881;-75
2022/05/14 18:52:18;;;;;;;12.77;11.70;;;;;;;20.28;100.00;101838.32;2016535;71;30938;-75
2022/05/14 18:58:03;;;;;;;13.25;12.20;;;;;;;20.10;100.00;101841.42;1998093;71;28010;-74
2022/05/14 19:10:02;;;;;;;12.53;11.57;;;;;;;19.46;100.00;101850.20;1995208;71;31417;-68
2022/05/14 19:15:50;;;;;;;12.70;11.80;;;;;;;19.38;100.00;101845.88;2003798;71;30901;-72
2022/05/14 19:21:34;;;;;;;12.63;11.53;;;;;;;19.20;100.00;101842.09;2014899;71;31426;-69
2022/05/14 19:27:20;;;;;;;12.30;11.30;;;;;;;18.98;100.00;101847.13;2013232;71;30899;-67
2022/05/14 19:33:04;;;;;;;11.87;11.07;;;;;;;18.97;100.00;101840.39;2003888;71;31000;-69
2022/05/14 19:38:51;;;;;;;12.10;11.27;;;;;;;18.91;100.00;101841.68;2011222;71;31381;-67
2022/05/14 19:44:41;;;;;;;12.37;11.47;;;;;;;18.79;100.00;101852.06;2004013;71;30952;-73
2022/05/14 19:50:26;;;;;;;12.23;11.17;;;;;;;18.68;100.00;101854.86;1981875;71;30803;-68
2022/05/14 19:56:16;;;;;;;11.97;11.07;;;;;;;18.57;100.00;101860.44;2014574;71;30902;-67
2022/05/14 20:02:01;;;;;;;12.17;11.13;;;;;;;18.50;100.00;101857.19;2002502;71;30867;-73
2022/05/14 20:07:45;;;;;;;12.30;11.33;;;;;;;18.38;100.00;101868.98;2006158;70;30904;-72
2022/05/14 20:13:30;;;;;;;13.77;12.53;;;;;;;18.27;100.00;101872.32;2000384;71;30907;-67
2022/05/14 20:25:18;;;;;;;14.60;13.20;;;;;;;18.01;100.00;101892.48;1999959;71;30900;-70
2022/05/14 20:31:03;;;;;;;14.17;12.87;;;;;;;17.95;100.00;101899.36;2014610;71;33055;-67
2022/05/14 20:36:49;;;;;;;13.83;12.90;;;;;;;17.79;100.00;101902.76;2016616;71;30972;-67
2022/05/14 20:42:33;;;;;;;14.23;13.03;;;;;;;17.75;100.00;101906.77;2002599;71;30892;-65
2022/05/14 20:48:19;;;;;;;14.83;13.57;;;;;;;17.68;100.00;101909.95;2002559;71;30881;-66
2022/05/14 20:54:05;;;;;;;18.53;13.50;;;;;;;17.56;100.00;101905.92;2007906;71;30913;-71
2022/05/14 20:59:49;;;;;;;15.00;13.70;;;;;;;17.43;100.00;101910.91;2013045;71;31347;-75
2022/05/14 21:05:34;;;;;;;14.00;12.77;;;;;;;17.34;100.00;101916.95;2011206;71;30997;-69
2022/05/14 21:11:18;;;;;;;13.47;12.60;;;;;;;17.32;100.00;101908.84;2011714;71;30836;-76
2022/05/14 21:17:02;;;;;;;13.97;12.87;;;;;;;17.29;100.00;101910.28;2009976;71;31348;-69
2022/05/14 21:22:56;;;;;;;14.70;13.70;;;;;;;17.18;100.00;101888.28;2005731;71;32994;-69
2022/05/14 21:28:43;;;;;;;15.20;13.93;;;;;;;16.97;100.00;101879.91;1998776;71;30954;-68
2022/05/14 21:37:39;;;;;;;15.90;14.73;;;;;;;16.99;100.00;101891.08;1843824;76;24230;-75
2022/05/14 21:40:14;;;;;;;18.00;16.60;;;;;;;16.67;100.00;101888.18;1879701;76;26265;-76
2022/05/14 21:42:53;;;;;;;18.20;16.73;;;;;;;16.67;100.00;101888.18;1887363;76;24140;-75
2022/05/14 21:45:25;;;;;;;16.63;15.30;;;;;;;16.54;100.00;101875.70;1915035;75;24142;-75
2022/05/14 21:47:57;;;;;;;17.83;16.53;;;;;;;16.54;100.00;101875.70;1915016;75;26179;-69
2022/05/14 21:50:28;;;;;;;17.90;16.57;;;;;;;16.53;100.00;101883.00;1914876;75;24202;-69
2022/05/14 21:53:02;;;;;;;18.67;17.37;;;;;;;16.47;100.00;101885.62;1914812;75;26253;-69
2022/05/14 21:55:34;;;;;;;19.17;17.87;;;;;;;16.61;100.00;101890.20;1910900;75;26674;-76
2022/05/14 21:58:10;;;;;;;18.90;17.33;;;;;;;16.52;100.00;101888.33;1929726;74;26743;-69
2022/05/14 22:01:01;;;;;;;21.60;20.10;;;;;;;16.30;100.00;101881.30;1928376;74;24149;-76
2022/05/14 22:03:34;;;;;;;23.17;21.67;;;;;;;16.27;100.00;101868.45;1928631;74;26692;-76
2022/05/14 22:06:05;;;;;;;25.13;23.53;;;;;;;16.16;100.00;101859.34;1929571;74;24174;-69
2022/05/14 22:08:35;;;;;;;26.30;24.60;;;;;;;15.96;100.00;101858.15;1929563;74;26261;-76
2022/05/14 22:11:05;;;;;;;27.87;26.10;;;;;;;15.89;100.00;101857.68;1929690;74;26314;-69
2022/05/14 22:13:36;;;;;;;28.47;26.67;;;;;;;15.85;100.00;101853.80;1929476;74;26196;-69
2022/05/14 22:16:07;;;;;;;31.73;29.63;;;;;;;15.84;100.00;101851.56;1929626;74;26187;-75
2022/05/14 22:18:37;;;;;;;33.67;31.37;;;;;;;15.61;100.00;101851.53;1929639;74;24176;-76
2022/05/14 22:21:07;;;;;;;33.50;31.37;;;;;;;15.47;100.00;101851.34;1929593;74;26769;-76
2022/05/14 22:23:38;;;;;;;33.23;31.27;;;;;;;15.56;100.00;101850.17;1929574;74;26226;-69
2022/05/14 22:26:08;;;;;;;33.90;31.80;;;;;;;15.44;100.00;101849.98;1929769;74;26264;-76
2022/05/14 22:28:39;;;;;;;35.47;33.07;;;;;;;15.36;100.00;101856.77;1929655;74;26200;-69
2022/05/14 22:31:10;;;;;;;39.17;36.70;;;;;;;15.33;100.00;101858.17;1929540;74;26203;-69
2022/05/14 22:33:40;;;;;;;42.43;39.70;;;;;;;15.41;100.00;101860.91;1929500;74;26777;-76
2022/05/14 22:39:25;;;;;;;46.63;44.10;;;;;;;15.32;100.00;101862.66;2014615;71;32855;-69
2022/05/14 22:45:12;;;;;;;48.57;45.53;;;;;;;15.01;100.00;101873.27;2007969;71;32898;-76
2022/05/14 22:50:57;;;;;;;47.67;44.87;;;;;;;15.17;100.00;101877.63;2018349;71;32908;-69
2022/05/14 22:56:41;;;;;;;50.03;46.83;;;;;;;15.19;100.00;101864.16;1996994;71;33303;-76
2022/05/14 23:02:26;;;;;;;48.83;45.83;;;;;;;15.26;100.00;101857.69;2010993;71;32899;-69
2022/05/14 23:08:11;;;;;;;59.90;56.50;;;;;;;15.03;100.00;101850.02;2000441;71;30960;-68
2022/05/14 23:13:55;;;;;;;66.03;62.43;;;;;;;14.90;100.00;101850.10;2005420;71;32913;-76
2022/05/14 23:19:39;;;;;;;68.87;65.00;;;;;;;14.89;100.00;101859.61;2003642;71;32881;-69
2022/05/14 23:25:26;;;;;;;70.77;66.77;;;;;;;15.05;100.00;101849.17;2015685;71;33347;-89
2022/05/14 23:31:12;;;;;;;71.37;67.23;;;;;;;15.00;100.00;101838.01;2007923;71;32856;-76
2022/05/14 23:36:56;;;;;;;72.90;68.53;;;;;;;15.13;100.00;101835.11;2011652;71;32760;-76
2022/05/14 23:42:43;;;;;;;74.10;69.83;;;;;;;15.11;100.00;101859.19;2014920;71;32869;-68
2022/05/14 23:48:30;;;;;;;76.30;71.60;;;;;;;15.18;100.00;101863.07;1991418;71;32825;-69
2022/05/14 23:54:15;;;;;;;74.27;69.97;;;;;;;15.29;100.00;101858.48;1995072;71;32835;-75
